createdAt,value
2022-07-26T00:01:49.926Z,24.40
2022-07-26T00:04:17.601Z,24.35
2022-07-26T00:06:45.232Z,24.33
2022-07-26T00:09:12.924Z,24.32
2022-07-26T00:11:42.015Z,24.30
2022-07-26T00:14:10.200Z,24.33
2022-07-26T00:16:40.186Z,24.38
2022-07-26T00:19:08.630Z,24.46
2022-07-26T00:21:37.089Z,24.54
2022-07-26T00:24:09.385Z,24.62
2022-07-26T00:26:37.008Z,24.65
2022-07-26T00:29:06.534Z,24.68
2022-07-26T00:31:34.452Z,24.73
2022-07-26T00:34:02.096Z,24.71
2022-07-26T00:36:29.757Z,24.61
2022-07-26T00:38:57.332Z,24.61
2022-07-26T00:41:24.959Z,24.66
2022-07-26T00:44:00.187Z,24.69
2022-07-26T00:46:29.585Z,24.70
2022-07-26T00:48:57.823Z,24.75
2022-07-26T00:51:25.468Z,24.68
2022-07-26T00:53:53.201Z,24.69
2022-07-26T00:56:21.672Z,24.71
2022-07-26T00:58:49.331Z,24.74
2022-07-26T01:01:16.952Z,24.72
2022-07-26T01:03:46.559Z,24.67
2022-07-26T01:06:14.209Z,24.62
2022-07-26T01:08:41.853Z,24.61
2022-07-26T01:11:09.492Z,24.64
2022-07-26T01:13:37.177Z,24.67
2022-07-26T01:16:05.126Z,24.53
2022-07-26T01:18:32.743Z,24.66
2022-07-26T01:21:13.688Z,24.63
2022-07-26T01:23:44.527Z,24.52
2022-07-26T01:26:12.616Z,24.52
2022-07-26T01:28:42.292Z,24.40
2022-07-26T01:31:10.027Z,24.18
2022-07-26T01:33:37.851Z,24.04
2022-07-26T01:36:05.973Z,23.99
2022-07-26T01:38:33.696Z,23.96
2022-07-26T01:41:02.799Z,24.01
2022-07-26T01:43:30.642Z,23.94
2022-07-26T01:45:59.692Z,23.96
2022-07-26T01:48:27.570Z,23.94
2022-07-26T01:50:55.298Z,23.82
2022-07-26T01:53:23.019Z,23.89
2022-07-26T01:55:50.641Z,23.85
2022-07-26T01:58:19.645Z,23.66
2022-07-26T02:00:47.344Z,23.64
2022-07-26T02:03:15.020Z,23.65
2022-07-26T02:05:42.764Z,23.61
2022-07-26T02:08:11.757Z,23.63
2022-07-26T02:10:58.708Z,23.65
2022-07-26T02:13:28.047Z,23.64
2022-07-26T02:15:55.798Z,23.60
2022-07-26T02:18:23.456Z,23.62
2022-07-26T02:20:51.062Z,23.69
2022-07-26T02:23:18.740Z,23.72
2022-07-26T02:25:46.376Z,23.65
2022-07-26T02:28:14.214Z,23.51
2022-07-26T02:30:43.564Z,23.48
2022-07-26T02:33:11.261Z,23.51
2022-07-26T02:35:38.962Z,23.56
2022-07-26T02:38:09.231Z,23.64
2022-07-26T02:40:39.781Z,23.62
2022-07-26T02:43:09.541Z,23.63
2022-07-26T02:45:37.833Z,23.40
2022-07-26T02:48:07.326Z,23.22
2022-07-26T02:50:35.534Z,23.17
2022-07-26T02:53:03.173Z,23.11
2022-07-26T02:55:32.006Z,22.74
2022-07-26T02:57:59.626Z,22.52
2022-07-26T03:00:28.161Z,22.56
2022-07-26T03:02:55.980Z,22.60
2022-07-26T03:05:25.100Z,22.50
2022-07-26T03:07:52.772Z,22.57
2022-07-26T03:10:20.420Z,22.47
2022-07-26T03:12:48.098Z,22.45
2022-07-26T03:15:15.777Z,22.53
2022-07-26T03:17:43.441Z,22.44
2022-07-26T03:20:12.732Z,22.51
2022-07-26T03:22:41.781Z,22.44
2022-07-26T03:25:10.037Z,22.41
2022-07-26T03:27:37.696Z,22.44
2022-07-26T03:30:05.877Z,22.42
2022-07-26T03:32:33.622Z,22.44
2022-07-26T03:35:01.237Z,22.24
2022-07-26T03:37:45.009Z,22.50
2022-07-26T03:40:16.080Z,22.57
2022-07-26T03:42:44.004Z,22.69
2022-07-26T03:45:12.351Z,22.77
2022-07-26T03:47:40.029Z,22.86
2022-07-26T03:50:09.310Z,22.84
2022-07-26T03:52:36.997Z,22.90
2022-07-26T03:55:25.416Z,22.62
2022-07-26T03:57:53.560Z,22.32
2022-07-26T04:00:21.463Z,22.31
2022-07-26T04:02:49.167Z,22.43
2022-07-26T04:05:16.819Z,22.57
2022-07-26T04:07:52.735Z,22.55
2022-07-26T04:10:21.421Z,22.42
2022-07-26T04:12:49.190Z,22.41
2022-07-26T04:15:19.896Z,22.50
2022-07-26T04:17:48.284Z,22.46
2022-07-26T04:20:16.713Z,22.44
2022-07-26T04:22:44.914Z,22.53
2022-07-26T04:25:12.686Z,22.57
2022-07-26T04:27:40.513Z,22.61
2022-07-26T04:30:14.442Z,22.41
2022-07-26T04:32:44.456Z,22.35
2022-07-26T04:35:15.388Z,22.39
2022-07-26T04:37:44.285Z,22.36
2022-07-26T04:40:13.336Z,22.47
2022-07-26T04:42:41.875Z,22.73
2022-07-26T04:45:12.609Z,22.88
2022-07-26T04:47:42.641Z,22.71
2022-07-26T04:50:13.396Z,22.75
2022-07-26T04:52:43.223Z,22.81
2022-07-26T04:55:11.797Z,22.85
2022-07-26T04:57:39.416Z,22.93
2022-07-26T05:00:26.733Z,22.88
2022-07-26T05:02:56.241Z,22.85
2022-07-26T05:05:27.655Z,22.43
2022-07-26T05:07:57.299Z,22.25
2022-07-26T05:10:30.124Z,22.08
2022-07-26T05:12:57.920Z,22.06
2022-07-26T05:15:25.863Z,21.98
2022-07-26T05:18:06.665Z,21.74
2022-07-26T05:20:37.071Z,21.78
2022-07-26T05:23:05.506Z,21.77
2022-07-26T05:25:33.233Z,21.92
2022-07-26T05:28:00.926Z,21.76
2022-07-26T05:30:28.712Z,21.78
2022-07-26T05:32:56.647Z,21.75
2022-07-26T05:35:24.429Z,21.61
2022-07-26T05:37:53.404Z,21.75
2022-07-26T05:40:21.102Z,21.65
2022-07-26T05:42:48.753Z,21.72
2022-07-26T05:45:16.584Z,21.73
2022-07-26T05:47:44.251Z,21.71
2022-07-26T05:50:11.947Z,21.56
2022-07-26T05:52:39.633Z,21.49
2022-07-26T05:55:10.106Z,21.62
2022-07-26T05:57:41.389Z,21.76
2022-07-26T06:00:12.576Z,21.83
2022-07-26T06:02:40.627Z,21.68
2022-07-26T06:05:09.258Z,21.58
2022-07-26T06:07:36.876Z,21.63
2022-07-26T06:10:05.619Z,21.55
2022-07-26T06:12:37.013Z,21.82
2022-07-26T06:15:15.515Z,21.63
2022-07-26T06:17:43.836Z,21.63
2022-07-26T06:20:12.344Z,21.67
2022-07-26T06:22:39.979Z,21.61
2022-07-26T06:25:08.427Z,21.71
2022-07-26T06:27:37.461Z,21.68
2022-07-26T06:30:05.958Z,21.73
2022-07-26T06:32:33.975Z,21.38
2022-07-26T06:35:01.654Z,21.20
2022-07-26T06:37:29.272Z,21.16
2022-07-26T06:39:56.892Z,21.01
2022-07-26T06:42:24.908Z,21.20
2022-07-26T06:44:53.866Z,21.22
2022-07-26T06:47:21.484Z,21.29
2022-07-26T06:49:49.114Z,21.41
2022-07-26T06:52:16.791Z,21.48
2022-07-26T06:54:47.534Z,21.32
2022-07-26T06:57:15.489Z,21.28
2022-07-26T06:59:43.081Z,21.24
2022-07-26T07:02:12.181Z,21.17
2022-07-26T07:04:39.930Z,21.23
2022-07-26T07:07:08.394Z,21.29
2022-07-26T07:09:37.522Z,21.31
2022-07-26T07:12:10.021Z,21.13
2022-07-26T07:14:38.554Z,21.32
2022-07-26T07:17:11.228Z,21.35
2022-07-26T07:19:42.401Z,21.50
2022-07-26T07:22:12.046Z,21.77
2022-07-26T07:24:40.516Z,21.90
2022-07-26T07:27:09.010Z,22.03
2022-07-26T07:29:38.776Z,21.67
2022-07-26T07:32:09.293Z,21.57
2022-07-26T07:34:48.005Z,21.53
2022-07-26T07:37:15.780Z,21.71
2022-07-26T07:39:43.551Z,21.66
2022-07-26T07:42:11.202Z,21.60
2022-07-26T07:44:38.862Z,21.54
2022-07-26T07:47:06.680Z,21.58
2022-07-26T07:49:34.555Z,21.53
2022-07-26T07:52:03.785Z,21.46
2022-07-26T07:54:31.443Z,21.68
2022-07-26T07:56:59.976Z,21.84
2022-07-26T07:59:27.698Z,21.78
2022-07-26T08:01:56.493Z,21.70
2022-07-26T08:04:24.131Z,21.93
2022-07-26T08:06:51.850Z,21.79
2022-07-26T08:09:23.418Z,22.08
2022-07-26T08:11:51.331Z,22.05
2022-07-26T08:14:19.174Z,22.09
2022-07-26T08:16:47.210Z,22.09
2022-07-26T08:19:15.405Z,22.16
2022-07-26T08:21:45.909Z,22.17
2022-07-26T08:24:14.575Z,22.25
2022-07-26T08:26:43.540Z,22.16
2022-07-26T08:29:11.732Z,22.17
2022-07-26T08:31:39.652Z,22.09
2022-07-26T08:34:07.276Z,21.99
2022-07-26T08:36:34.872Z,22.01
2022-07-26T08:39:03.117Z,22.14
2022-07-26T08:41:31.720Z,22.17
2022-07-26T08:44:07.939Z,22.41
2022-07-26T08:46:37.636Z,22.56
2022-07-26T08:49:07.587Z,22.69
2022-07-26T08:51:38.492Z,22.83
2022-07-26T08:54:06.384Z,22.95
2022-07-26T08:56:35.782Z,22.97
2022-07-26T08:59:07.553Z,23.14
2022-07-26T09:01:35.775Z,23.13
2022-07-26T09:04:30.309Z,23.15
2022-07-26T09:07:00.337Z,23.11
2022-07-26T09:09:28.924Z,22.97
2022-07-26T09:11:57.642Z,23.04
2022-07-26T09:14:38.496Z,22.92
2022-07-26T09:17:07.101Z,22.87
2022-07-26T09:19:34.944Z,22.88
2022-07-26T09:22:10.337Z,22.74
2022-07-26T09:24:42.080Z,22.99
2022-07-26T09:27:11.828Z,23.28
2022-07-26T09:29:49.304Z,23.37
2022-07-26T09:32:18.567Z,23.29
2022-07-26T09:34:52.941Z,23.43
2022-07-26T09:37:34.563Z,23.72
2022-07-26T09:40:04.213Z,23.77
2022-07-26T09:42:31.956Z,23.69
2022-07-26T09:45:01.832Z,23.65
2022-07-26T09:47:40.281Z,23.63
2022-07-26T09:50:16.008Z,23.63
2022-07-26T09:52:59.385Z,23.58
2022-07-26T09:55:31.085Z,23.86
2022-07-26T09:58:06.412Z,24.26
2022-07-26T10:00:35.509Z,24.36
2022-07-26T10:03:03.129Z,24.32
2022-07-26T10:05:30.884Z,24.28
2022-07-26T10:07:59.204Z,24.52
2022-07-26T10:10:30.281Z,24.56
2022-07-26T10:13:02.721Z,24.47
2022-07-26T10:15:40.985Z,24.50
2022-07-26T10:18:16.788Z,24.35
2022-07-26T10:20:48.737Z,24.54
2022-07-26T10:23:39.913Z,24.69
2022-07-26T10:26:10.296Z,24.47
2022-07-26T10:28:39.117Z,24.37
2022-07-26T10:31:31.423Z,24.24
2022-07-26T10:34:02.607Z,24.29
2022-07-26T10:36:35.420Z,24.53
2022-07-26T10:39:23.449Z,24.86
2022-07-26T10:41:59.699Z,25.22
2022-07-26T10:44:29.733Z,25.22
2022-07-26T10:47:05.267Z,25.50
2022-07-26T10:49:37.303Z,25.82
2022-07-26T10:52:14.567Z,25.56
2022-07-26T10:55:16.921Z,25.62
2022-07-26T10:57:46.865Z,26.17
2022-07-26T11:00:18.797Z,26.19
2022-07-26T11:02:52.756Z,25.95
2022-07-26T11:05:21.672Z,25.45
2022-07-26T11:07:58.494Z,25.70
2022-07-26T11:10:28.776Z,25.97
2022-07-26T11:13:09.083Z,25.96
2022-07-26T11:15:37.708Z,25.98
2022-07-26T11:18:18.032Z,26.09
2022-07-26T11:20:47.278Z,26.24
2022-07-26T11:23:31.089Z,26.64
2022-07-26T11:26:09.789Z,26.68
2022-07-26T11:29:06.406Z,26.73
2022-07-26T11:31:55.767Z,26.57
2022-07-26T11:34:31.155Z,25.74
2022-07-26T11:37:00.840Z,25.96
2022-07-26T11:39:30.526Z,26.35
2022-07-26T11:41:59.206Z,26.24
2022-07-26T11:44:27.079Z,26.38
2022-07-26T11:46:55.986Z,26.85
2022-07-26T11:49:52.186Z,27.02
2022-07-26T11:52:14.756Z,26.75
2022-07-26T11:54:47.219Z,26.53
2022-07-26T11:57:15.309Z,26.90
2022-07-26T11:59:45.424Z,27.40
2022-07-26T12:02:14.757Z,27.39
2022-07-26T12:04:44.637Z,27.55
2022-07-26T12:07:15.434Z,26.93
2022-07-26T12:09:47.913Z,27.33
2022-07-26T12:12:21.693Z,27.93
2022-07-26T12:14:58.099Z,28.34
2022-07-26T12:17:25.767Z,29.09
2022-07-26T12:19:56.305Z,29.37
2022-07-26T12:22:25.829Z,29.92
2022-07-26T12:24:57.220Z,28.00
2022-07-26T12:27:26.649Z,29.16
2022-07-26T12:29:56.477Z,30.07
2022-07-26T12:32:31.620Z,30.32
2022-07-26T12:35:01.398Z,30.69
2022-07-26T12:37:39.755Z,29.83
2022-07-26T12:40:11.462Z,30.13
2022-07-26T12:42:40.994Z,29.31
2022-07-26T12:45:11.349Z,28.93
2022-07-26T12:47:41.806Z,30.10
2022-07-26T12:50:11.479Z,30.42
2022-07-26T12:52:40.988Z,31.49
2022-07-26T12:55:11.460Z,31.27
2022-07-26T12:57:39.268Z,31.64
2022-07-26T13:00:15.152Z,30.77
2022-07-26T13:02:44.397Z,31.00
2022-07-26T13:05:13.132Z,31.16
2022-07-26T13:07:42.788Z,29.88
2022-07-26T13:13:00.049Z,27.86
2022-07-26T13:15:36.001Z,27.60
2022-07-26T13:18:04.454Z,27.54
2022-07-26T13:20:32.572Z,28.07
2022-07-26T13:23:02.790Z,28.99
2022-07-26T13:25:39.626Z,31.50
2022-07-26T13:28:08.049Z,32.33
2022-07-26T13:30:37.423Z,32.91
2022-07-26T13:33:05.129Z,32.37
2022-07-26T13:35:32.775Z,33.98
2022-07-26T13:38:01.706Z,34.08
2022-07-26T13:40:31.740Z,32.62
2022-07-26T13:42:59.901Z,30.49
2022-07-26T13:45:28.933Z,30.72
2022-07-26T13:47:57.239Z,30.85
2022-07-26T13:50:26.709Z,30.71
2022-07-26T13:52:55.111Z,31.19
2022-07-26T13:55:24.615Z,31.41
2022-07-26T13:57:56.595Z,31.58
2022-07-26T14:00:25.771Z,31.52
2022-07-26T14:02:53.770Z,31.07
2022-07-26T14:05:21.768Z,31.17
2022-07-26T14:07:49.618Z,32.18
2022-07-26T14:10:17.633Z,32.29
2022-07-26T14:12:47.663Z,32.96
2022-07-26T14:15:19.730Z,34.27
2022-07-26T14:17:49.546Z,35.53
2022-07-26T14:20:17.759Z,36.61
2022-07-26T14:22:45.453Z,38.27
2022-07-26T14:25:13.250Z,37.92
2022-07-26T14:27:40.896Z,37.00
2022-07-26T14:30:10.715Z,37.51
2022-07-26T14:32:38.382Z,35.91
2022-07-26T14:35:07.215Z,38.59
2022-07-26T14:37:44.264Z,39.26
2022-07-26T14:40:14.551Z,36.32
2022-07-26T14:42:42.260Z,34.23
2022-07-26T14:45:12.852Z,34.65
2022-07-26T14:47:40.895Z,34.21
2022-07-26T14:50:10.183Z,34.95
2022-07-26T14:52:39.523Z,35.76
2022-07-26T14:55:08.459Z,37.68
2022-07-26T14:57:38.318Z,38.72
2022-07-26T15:00:09.497Z,37.50
2022-07-26T15:02:43.302Z,37.74
2022-07-26T15:05:11.781Z,37.43
2022-07-26T15:07:39.961Z,38.90
2022-07-26T15:10:09.539Z,40.12
2022-07-26T15:12:37.610Z,41.76
2022-07-26T15:15:06.772Z,42.81
2022-07-26T15:17:34.615Z,43.12
2022-07-26T15:20:04.953Z,42.15
2022-07-26T15:22:32.652Z,43.20
2022-07-26T15:25:00.283Z,43.94
2022-07-26T15:27:27.857Z,43.90
2022-07-26T15:30:01.086Z,43.90
2022-07-26T15:32:31.689Z,40.01
2022-07-26T15:34:59.365Z,35.59
2022-07-26T15:37:28.786Z,36.12
2022-07-26T15:39:56.503Z,37.69
2022-07-26T15:42:24.117Z,39.41
2022-07-26T15:44:52.605Z,39.09
2022-07-26T15:47:52.522Z,36.26
2022-07-26T15:50:11.444Z,37.10
2022-07-26T15:52:42.757Z,40.30
2022-07-26T15:55:12.193Z,41.38
2022-07-26T15:57:40.969Z,41.54
2022-07-26T16:00:11.748Z,42.44
2022-07-26T16:02:40.937Z,43.74
2022-07-26T16:05:10.098Z,45.03
2022-07-26T16:07:38.624Z,45.04
2022-07-26T16:10:08.872Z,45.13
2022-07-26T16:12:36.528Z,46.63
2022-07-26T16:15:04.818Z,44.86
2022-07-26T16:17:32.536Z,45.36
2022-07-26T16:20:00.208Z,43.24
2022-07-26T16:22:28.213Z,41.52
2022-07-26T16:24:55.810Z,39.05
2022-07-26T16:27:24.728Z,37.36
2022-07-26T16:29:52.690Z,36.18
2022-07-26T16:32:21.035Z,33.90
2022-07-26T16:34:48.722Z,32.82
2022-07-26T16:37:16.337Z,31.30
2022-07-26T16:39:43.970Z,30.45
2022-07-26T16:42:11.559Z,30.69
2022-07-26T16:44:40.555Z,32.75
2022-07-26T16:47:08.481Z,34.95
2022-07-26T16:49:36.130Z,37.85
2022-07-26T16:52:03.766Z,38.63
2022-07-26T16:54:32.865Z,40.82
2022-07-26T16:57:00.879Z,41.88
2022-07-26T16:59:29.370Z,42.71
2022-07-26T17:02:01.528Z,39.57
2022-07-26T17:04:30.794Z,39.29
2022-07-26T17:07:23.569Z,39.43
2022-07-26T17:09:45.943Z,38.72
2022-07-26T17:12:13.632Z,39.89
2022-07-26T17:14:41.236Z,37.83
2022-07-26T17:17:10.147Z,36.47
2022-07-26T17:19:37.784Z,34.92
2022-07-26T17:22:05.578Z,33.24
2022-07-26T17:24:33.245Z,33.15
2022-07-26T17:27:00.912Z,32.64
2022-07-26T17:29:28.533Z,32.32
2022-07-26T17:31:56.119Z,31.77
2022-07-26T17:34:25.437Z,31.67
2022-07-26T17:36:58.394Z,30.07
2022-07-26T17:39:50.657Z,29.89
2022-07-26T17:42:14.861Z,28.79
2022-07-26T17:44:42.637Z,29.37
2022-07-26T17:47:28.609Z,30.68
2022-07-26T17:50:26.166Z,32.32
2022-07-26T17:52:48.943Z,33.15
2022-07-26T17:55:18.242Z,34.73
2022-07-26T17:57:46.036Z,36.43
2022-07-26T18:00:15.367Z,36.93
2022-07-26T18:02:43.103Z,38.33
2022-07-26T18:05:12.277Z,38.69
2022-07-26T18:07:40.527Z,38.45
2022-07-26T18:10:09.920Z,39.01
2022-07-26T18:12:37.613Z,39.33
2022-07-26T18:15:06.439Z,39.70
2022-07-26T18:17:34.208Z,38.24
2022-07-26T18:20:01.963Z,37.38
2022-07-26T18:22:31.163Z,36.43
2022-07-26T18:24:58.772Z,35.42
2022-07-26T18:27:28.007Z,34.81
2022-07-26T18:29:55.947Z,33.67
2022-07-26T18:32:23.557Z,32.78
2022-07-26T18:34:52.565Z,31.74
2022-07-26T18:37:20.922Z,31.05
2022-07-26T18:39:55.409Z,30.00
2022-07-26T18:42:25.194Z,29.62
2022-07-26T18:44:52.926Z,29.45
2022-07-26T18:47:20.565Z,29.09
2022-07-26T18:49:48.188Z,28.76
2022-07-26T18:52:17.789Z,28.16
2022-07-26T18:54:58.529Z,27.87
2022-07-26T18:57:26.212Z,27.81
2022-07-26T18:59:53.889Z,27.62
2022-07-26T19:02:21.508Z,27.29
2022-07-26T19:04:49.085Z,27.06
2022-07-26T19:07:17.753Z,27.02
2022-07-26T19:09:45.430Z,26.72
2022-07-26T19:12:14.445Z,26.60
2022-07-26T19:14:42.164Z,26.56
2022-07-26T19:17:11.626Z,26.47
2022-07-26T19:19:39.744Z,26.26
2022-07-26T19:22:07.430Z,26.17
2022-07-26T19:24:42.135Z,25.98
2022-07-26T19:27:10.093Z,25.89
2022-07-26T19:29:39.568Z,25.74
2022-07-26T19:32:08.184Z,25.64
2022-07-26T19:34:36.116Z,25.54
2022-07-26T19:37:04.733Z,25.44
2022-07-26T19:39:32.673Z,25.30
2022-07-26T19:42:00.356Z,25.20
2022-07-26T19:44:28.026Z,25.10
2022-07-26T19:46:57.967Z,25.04
2022-07-26T19:49:26.049Z,24.86
2022-07-26T19:51:53.697Z,24.78
2022-07-26T19:54:21.362Z,24.67
2022-07-26T19:56:49.081Z,24.54
2022-07-26T19:59:22.625Z,24.40
2022-07-26T20:01:52.841Z,24.35
2022-07-26T20:04:22.514Z,24.28
2022-07-26T20:06:50.572Z,24.15
2022-07-26T20:09:18.198Z,24.11
2022-07-26T20:11:50.625Z,23.99
2022-07-26T20:14:18.653Z,23.88
2022-07-26T20:16:46.726Z,23.82
2022-07-26T20:19:14.595Z,23.77
2022-07-26T20:21:43.983Z,23.72
2022-07-26T20:24:13.006Z,23.65
2022-07-26T20:26:40.611Z,23.60
2022-07-26T20:29:08.792Z,23.56
2022-07-26T20:31:36.708Z,23.48
2022-07-26T20:34:04.501Z,23.43
2022-07-26T20:36:32.281Z,23.34
2022-07-26T20:39:01.317Z,23.28
2022-07-26T20:41:34.069Z,23.23
2022-07-26T20:44:01.824Z,23.22
2022-07-26T20:46:29.637Z,23.23
2022-07-26T20:48:57.344Z,23.19
2022-07-26T20:51:25.334Z,23.10
2022-07-26T20:53:53.018Z,23.06
2022-07-26T20:56:21.996Z,22.91
2022-07-26T20:58:49.619Z,22.82
2022-07-26T21:01:17.382Z,22.79
2022-07-26T21:03:45.065Z,22.72
2022-07-26T21:06:12.686Z,22.72
2022-07-26T21:08:40.335Z,22.70
2022-07-26T21:11:07.978Z,22.67
2022-07-26T21:13:37.560Z,22.55
2022-07-26T21:16:05.775Z,22.47
2022-07-26T21:18:38.280Z,22.40
2022-07-26T21:21:06.101Z,22.36
2022-07-26T21:23:33.716Z,22.27
2022-07-26T21:26:01.368Z,22.16
2022-07-26T21:28:29.379Z,22.13
2022-07-26T21:30:58.497Z,22.09
2022-07-26T21:33:26.234Z,21.98
2022-07-26T21:35:54.134Z,21.84
2022-07-26T21:38:21.893Z,21.80
2022-07-26T21:40:49.729Z,21.73
2022-07-26T21:43:17.664Z,21.79
2022-07-26T21:45:45.491Z,21.75
2022-07-26T21:48:14.886Z,21.76
2022-07-26T21:50:45.535Z,21.76
2022-07-26T21:53:13.693Z,21.71
2022-07-26T21:55:42.545Z,21.75
2022-07-26T21:58:11.052Z,21.78
2022-07-26T22:00:39.236Z,21.67
2022-07-26T22:03:07.831Z,21.79
2022-07-26T22:05:38.991Z,21.90
2022-07-26T22:08:08.205Z,21.86
2022-07-26T22:10:44.022Z,21.91
2022-07-26T22:13:13.420Z,21.92
2022-07-26T22:15:41.539Z,21.91
2022-07-26T22:18:10.182Z,21.84
2022-07-26T22:20:40.015Z,21.82
2022-07-26T22:23:09.676Z,21.84
2022-07-26T22:25:38.260Z,21.66
2022-07-26T22:28:07.060Z,21.59
2022-07-26T22:30:35.201Z,21.68
2022-07-26T22:33:04.679Z,21.79
2022-07-26T22:35:36.654Z,21.84
2022-07-26T22:38:07.510Z,21.64
2022-07-26T22:40:35.332Z,21.42
2022-07-26T22:43:03.597Z,21.45
2022-07-26T22:45:31.625Z,21.49
2022-07-26T22:47:59.630Z,21.31
2022-07-26T22:50:27.815Z,21.17
2022-07-26T22:52:56.242Z,21.17
2022-07-26T22:55:25.673Z,21.08
2022-07-26T22:57:53.364Z,21.06
2022-07-26T23:00:21.542Z,21.07
2022-07-26T23:02:49.409Z,20.91
2022-07-26T23:05:17.252Z,20.77
2022-07-26T23:07:48.051Z,20.83
2022-07-26T23:10:17.009Z,20.76
2022-07-26T23:12:46.066Z,20.75
2022-07-26T23:15:14.058Z,20.94
2022-07-26T23:17:41.936Z,20.87
2022-07-26T23:20:11.431Z,20.91
2022-07-26T23:22:41.732Z,20.88
2022-07-26T23:25:10.130Z,20.82
2022-07-26T23:27:37.769Z,20.88
2022-07-26T23:30:07.724Z,20.73
2022-07-26T23:32:35.332Z,20.62
2022-07-26T23:35:02.975Z,20.50
2022-07-26T23:37:30.753Z,20.44
2022-07-26T23:39:58.394Z,20.45
2022-07-26T23:42:26.121Z,20.49
2022-07-26T23:44:53.844Z,20.54
2022-07-26T23:47:22.843Z,20.53
2022-07-26T23:49:50.458Z,20.45
2022-07-26T23:52:18.171Z,20.37
2022-07-26T23:54:45.798Z,20.29
2022-07-26T23:57:13.477Z,20.46
2022-07-26T23:59:41.147Z,20.49
